Time;durP1;ratioP1;P1;durP2;ratioP2;P2;SDS_P1;SDS_P2;PMS_P1;PMS_P2;Temp;Humidity;BMP_temperature;BMP_pressure;BME280_temperature;BME280_humidity;BME280_pressure;Samples;Min_cycle;Max_cycle;Signal;HPM_P1;HPM_P2
2022/12/03 00:00:17;;;;;;;;;;;1.80;99.90;;;;;;5066390;28;20003;-82
2022/12/03 00:02:43;;;;;;;;;;;1.80;99.90;;;;;;5059695;28;19920;-82
2022/12/03 00:05:09;;;;;;;;;;;1.80;99.90;;;;;;5030221;28;20377;-82
2022/12/03 00:07:35;;;;;;;;;;;1.70;99.90;;;;;;5041186;28;20375;-82
2022/12/03 00:10:00;;;;;;;;;;;1.70;99.90;;;;;;5063500;28;19920;-82
2022/12/03 00:12:26;;;;;;;;;;;1.70;99.90;;;;;;5069289;28;19913;-82
2022/12/03 00:14:51;;;;;;;;;;;1.60;99.90;;;;;;5044854;28;19917;-83
2022/12/03 00:17:17;;;;;;;;;;;1.60;99.90;;;;;;5062942;28;19913;-82
2022/12/03 00:19:42;;;;;;;;;;;1.60;99.90;;;;;;5049105;28;20288;-82
2022/12/03 00:22:08;;;;;;;;;;;1.60;99.90;;;;;;5071739;28;19943;-82
2022/12/03 00:24:33;;;;;;;;;;;1.50;99.90;;;;;;5048128;28;19943;-82
2022/12/03 00:26:59;;;;;;;;;;;1.50;99.90;;;;;;5039112;28;19913;-82
2022/12/03 00:29:24;;;;;;;;;;;1.50;99.90;;;;;;5055344;28;19917;-82
2022/12/03 00:31:50;;;;;;;;;;;1.50;99.90;;;;;;5055501;28;19908;-82
2022/12/03 00:34:16;;;;;;;;;;;1.50;99.90;;;;;;5041912;28;19917;-82
2022/12/03 00:36:41;;;;;;;;;;;1.50;99.90;;;;;;5063863;28;19951;-82
2022/12/03 00:39:07;;;;;;;;;;;1.40;99.90;;;;;;5062071;28;20019;-82
2022/12/03 00:41:32;;;;;;;;;;;1.30;99.90;;;;;;5066422;28;19912;-82
2022/12/03 00:43:58;;;;;;;;;;;1.30;99.90;;;;;;5064169;28;19930;-82
2022/12/03 00:46:24;;;;;;;;;;;1.20;99.90;;;;;;5065685;28;19988;-82
2022/12/03 00:48:50;;;;;;;;;;;1.20;99.90;;;;;;5065460;28;19936;-82
2022/12/03 00:51:15;;;;;;;;;;;1.10;99.90;;;;;;5043400;28;20044;-82
2022/12/03 00:53:41;;;;;;;;;;;1.10;99.90;;;;;;5044317;28;20367;-82
2022/12/03 00:56:06;;;;;;;;;;;1.10;99.90;;;;;;5066109;28;20321;-82
2022/12/03 00:58:32;;;;;;;;;;;1.20;99.90;;;;;;5075138;28;19913;-82
2022/12/03 01:00:57;;;;;;;;;;;1.20;99.90;;;;;;5057193;28;19913;-82
2022/12/03 01:03:23;;;;;;;;;;;1.20;99.90;;;;;;5057337;28;20343;-82
2022/12/03 01:05:49;;;;;;;;;;;1.20;99.90;;;;;;5040470;28;20363;-82
2022/12/03 01:08:14;;;;;;;;;;;1.20;99.90;;;;;;5056855;28;19927;-82
2022/12/03 01:10:40;;;;;;;;;;;1.20;99.90;;;;;;5057516;28;19996;-82
2022/12/03 01:13:05;;;;;;;;;;;1.10;99.90;;;;;;5045830;28;19920;-82
2022/12/03 01:15:31;;;;;;;;;;;1.10;99.90;;;;;;5063585;28;19916;-82
2022/12/03 01:17:56;;;;;;;;;;;1.00;99.90;;;;;;5029253;28;19963;-82
2022/12/03 01:20:22;;;;;;;;;;;0.90;99.90;;;;;;5063143;28;20376;-82
2022/12/03 01:22:47;;;;;;;;;;;0.80;99.90;;;;;;5020366;28;19936;-82
2022/12/03 01:25:13;;;;;;;;;;;0.70;99.90;;;;;;5054338;28;19913;-82
2022/12/03 01:27:39;;;;;;;;;;;0.70;99.90;;;;;;5054157;28;19920;-83
2022/12/03 01:30:04;;;;;;;;;;;0.60;99.90;;;;;;5054491;28;19920;-83
2022/12/03 01:32:30;;;;;;;;;;;0.70;99.90;;;;;;5036081;28;20324;-82
2022/12/03 01:34:56;;;;;;;;;;;0.60;99.90;;;;;;5054192;28;19912;-82
2022/12/03 01:37:23;;;;;;;;;;;0.60;99.90;;;;;;5036166;28;19913;-82
2022/12/03 01:39:48;;;;;;;;;;;0.70;99.90;;;;;;5053696;28;19915;-83
2022/12/03 01:42:22;;;;;;;;;;;0.70;99.90;;;;;;5036339;28;20011;-83
2022/12/03 01:44:49;;;;;;;;;;;0.70;99.90;;;;;;5036016;28;19909;-82
2022/12/03 01:47:16;;;;;;;;;;;0.70;99.90;;;;;;5035705;28;20351;-82
2022/12/03 01:49:44;;;;;;;;;;;0.70;99.90;;;;;;5036088;28;19908;-82
2022/12/03 01:52:14;;;;;;;;;;;0.70;99.90;;;;;;5054003;28;19908;-82
2022/12/03 01:54:41;;;;;;;;;;;0.60;99.90;;;;;;5036862;28;19917;-82
2022/12/03 01:57:18;;;;;;;;;;;0.50;99.90;;;;;;5061326;28;19931;-82
2022/12/03 01:59:43;;;;;;;;;;;0.50;99.90;;;;;;5061556;28;19913;-82
2022/12/03 02:02:28;;;;;;;;;;;0.40;99.90;;;;;;5055679;28;20440;-82
2022/12/03 02:04:54;;;;;;;;;;;0.40;99.90;;;;;;5056096;28;20284;-82
2022/12/03 02:07:31;;;;;;;;;;;0.40;99.90;;;;;;5073872;28;20383;-82
2022/12/03 02:09:58;;;;;;;;;;;0.30;99.90;;;;;;5074305;28;19916;-82
2022/12/03 02:12:27;;;;;;;;;;;0.30;99.90;;;;;;5074164;28;20074;-82
2022/12/03 02:14:53;;;;;;;;;;;0.30;99.90;;;;;;5056019;28;19919;-82
2022/12/03 02:17:18;;;;;;;;;;;0.40;99.90;;;;;;5050921;28;20004;-82
2022/12/03 02:19:45;;;;;;;;;;;0.40;99.90;;;;;;5035832;28;19909;-82
2022/12/03 02:22:13;;;;;;;;;;;0.40;99.90;;;;;;5035992;28;19913;-82
2022/12/03 02:24:45;;;;;;;;;;;0.40;99.90;;;;;;5053725;28;19916;-81
2022/12/03 02:27:10;;;;;;;;;;;0.40;99.90;;;;;;5058894;28;19909;-81
2022/12/03 02:29:36;;;;;;;;;;;0.40;99.90;;;;;;5035126;28;20015;-81
2022/12/03 02:32:01;;;;;;;;;;;0.40;99.90;;;;;;5073380;28;19962;-82
2022/12/03 02:34:40;;;;;;;;;;;0.40;99.90;;;;;;5073812;28;19962;-82
2022/12/03 02:37:08;;;;;;;;;;;0.40;99.90;;;;;;5055804;28;20350;-82
2022/12/03 02:39:36;;;;;;;;;;;0.40;99.90;;;;;;5073734;28;19909;-81
2022/12/03 02:44:46;;;;;;;;;;;0.40;99.90;;;;;;5073894;28;19920;-81
2022/12/03 02:47:11;;;;;;;;;;;0.30;99.90;;;;;;5069761;28;19913;-82
2022/12/03 02:49:37;;;;;;;;;;;0.30;99.90;;;;;;5053504;28;19920;-81
2022/12/03 02:52:03;;;;;;;;;;;0.30;99.90;;;;;;5038790;28;19919;-81
2022/12/03 02:54:28;;;;;;;;;;;0.30;99.90;;;;;;5039721;28;19927;-81
2022/12/03 02:56:54;;;;;;;;;;;0.30;99.90;;;;;;5059184;28;19913;-81
2022/12/03 02:59:19;;;;;;;;;;;0.20;99.90;;;;;;5050536;28;19912;-80
2022/12/03 03:01:45;;;;;;;;;;;0.20;99.90;;;;;;5057199;28;19917;-81
2022/12/03 03:04:10;;;;;;;;;;;0.20;99.90;;;;;;5045322;28;19963;-80
2022/12/03 03:06:36;;;;;;;;;;;0.10;99.90;;;;;;5074582;28;20279;-80
2022/12/03 03:09:02;;;;;;;;;;;0.10;99.90;;;;;;5076988;28;20404;-80
2022/12/03 03:11:28;;;;;;;;;;;0.10;99.90;;;;;;5077014;28;19908;-80
2022/12/03 03:13:54;;;;;;;;;;;0.10;99.90;;;;;;5077144;28;20022;-80
2022/12/03 03:16:19;;;;;;;;;;;0.10;99.90;;;;;;5066231;28;19962;-81
2022/12/03 03:18:45;;;;;;;;;;;0.00;99.90;;;;;;5065404;28;20424;-80
2022/12/03 03:21:11;;;;;;;;;;;0.00;99.90;;;;;;5073327;28;19917;-80
2022/12/03 03:23:36;;;;;;;;;;;-0.10;99.90;;;;;;5076892;28;19935;-80
2022/12/03 03:26:06;;;;;;;;;;;-0.10;99.90;;;;;;5055668;28;19935;-80
2022/12/03 03:28:34;;;;;;;;;;;-0.10;99.90;;;;;;5056928;28;19999;-80
2022/12/03 03:31:00;;;;;;;;;;;-0.10;99.90;;;;;;5040898;28;20376;-80
2022/12/03 03:33:26;;;;;;;;;;;-0.10;99.90;;;;;;5057085;28;19956;-80
2022/12/03 03:35:52;;;;;;;;;;;-0.20;99.90;;;;;;5038478;28;19952;-80
2022/12/03 03:38:18;;;;;;;;;;;-0.30;99.90;;;;;;5062756;28;19981;-80
2022/12/03 03:40:44;;;;;;;;;;;-0.40;99.90;;;;;;5065743;28;19912;-80
2022/12/03 03:43:11;;;;;;;;;;;-0.50;99.90;;;;;;5076307;28;19912;-80
2022/12/03 03:45:37;;;;;;;;;;;-0.50;99.90;;;;;;5076905;28;20269;-79
2022/12/03 03:48:02;;;;;;;;;;;-0.50;99.90;;;;;;5076231;28;19919;-80
2022/12/03 03:50:29;;;;;;;;;;;-0.50;99.90;;;;;;5076581;28;20385;-80
2022/12/03 03:52:55;;;;;;;;;;;-0.40;99.90;;;;;;5076800;28;19950;-79
2022/12/03 03:55:21;;;;;;;;;;;-0.50;99.90;;;;;;5055234;28;20008;-80
2022/12/03 03:57:47;;;;;;;;;;;-0.50;99.90;;;;;;5056173;28;20388;-80
2022/12/03 04:00:12;;;;;;;;;;;-0.50;99.90;;;;;;5047449;28;19917;-80
2022/12/03 04:02:39;;;;;;;;;;;-0.60;99.90;;;;;;5065938;28;19912;-80
2022/12/03 04:05:05;;;;;;;;;;;-0.60;99.90;;;;;;5061827;28;19916;-80
2022/12/03 04:07:30;;;;;;;;;;;-0.70;99.90;;;;;;5055508;28;19916;-80
2022/12/03 04:09:56;;;;;;;;;;;-0.80;99.90;;;;;;5070742;28;19987;-79
2022/12/03 04:15:06;;;;;;;;;;;-0.90;99.90;;;;;;5067329;28;20287;-80
2022/12/03 04:17:32;;;;;;;;;;;-0.90;99.90;;;;;;5057983;28;19912;-79
2022/12/03 04:19:57;;;;;;;;;;;-0.90;99.90;;;;;;5076145;28;19908;-80
2022/12/03 04:22:38;;;;;;;;;;;-1.00;99.90;;;;;;5076036;28;19913;-79
2022/12/03 04:30:32;;;;;;;;;;;-0.90;99.90;;;;;;5063079;28;19958;-80
2022/12/03 04:35:42;;;;;;;;;;;-0.90;99.90;;;;;;5062045;28;19923;-80
2022/12/03 04:38:08;;;;;;;;;;;-0.90;99.90;;;;;;5043796;28;20006;-79
2022/12/03 04:44:31;;;;;;;;;;;-0.90;99.90;;;;;;4990310;28;20009;-80
2022/12/03 04:46:20;;;;;;;;;;;-0.90;99.90;;;;;;5051945;28;19918;-80
2022/12/03 04:48:46;;;;;;;;;;;-0.90;99.90;;;;;;5040765;28;19913;-80
2022/12/03 04:51:11;;;;;;;;;;;-1.00;99.90;;;;;;5041612;28;19913;-80
2022/12/03 04:53:37;;;;;;;;;;;-1.00;99.90;;;;;;5060529;28;20389;-80
2022/12/03 04:56:02;;;;;;;;;;;-1.00;99.90;;;;;;5058381;28;19924;-80
2022/12/03 04:58:28;;;;;;;;;;;-1.00;99.90;;;;;;5040307;28;19917;-79
2022/12/03 05:00:53;;;;;;;;;;;-1.00;99.90;;;;;;5039330;28;19919;-79
2022/12/03 05:03:19;;;;;;;;;;;-1.00;99.90;;;;;;5056256;28;20377;-79
2022/12/03 05:05:45;;;;;;;;;;;-1.00;99.90;;;;;;5056470;28;19917;-80
2022/12/03 05:08:10;;;;;;;;;;;-1.00;99.90;;;;;;5063874;28;20007;-80
2022/12/03 05:10:36;;;;;;;;;;;-1.00;99.90;;;;;;5044177;28;20327;-80
2022/12/03 05:13:01;;;;;;;;;;;-1.00;99.90;;;;;;5061963;28;19908;-80
2022/12/03 05:15:27;;;;;;;;;;;-1.10;99.90;;;;;;5032554;28;19917;-80
2022/12/03 05:17:52;;;;;;;;;;;-1.20;99.90;;;;;;5076587;28;19912;-80
2022/12/03 05:23:02;;;;;;;;;;;-1.20;99.90;;;;;;5077700;28;19996;-80
2022/12/03 05:25:28;;;;;;;;;;;-1.20;99.90;;;;;;5054960;28;19948;-79
2022/12/03 05:27:53;;;;;;;;;;;-1.30;99.90;;;;;;5056986;28;19913;-79
2022/12/03 05:30:19;;;;;;;;;;;-1.30;99.90;;;;;;5038746;28;19913;-80
2022/12/03 05:32:44;;;;;;;;;;;-1.30;99.90;;;;;;5057112;28;19913;-79
2022/12/03 05:35:10;;;;;;;;;;;-1.30;99.90;;;;;;5055710;28;19922;-79
2022/12/03 05:37:36;;;;;;;;;;;-1.30;99.90;;;;;;5056068;28;19916;-80
2022/12/03 05:40:02;;;;;;;;;;;-1.30;99.90;;;;;;5056236;28;20320;-80
2022/12/03 05:45:12;;;;;;;;;;;-1.30;99.90;;;;;;5056877;28;19937;-80
2022/12/03 05:47:37;;;;;;;;;;;-1.40;99.90;;;;;;5056386;28;20283;-79
2022/12/03 05:50:03;;;;;;;;;;;-1.40;99.90;;;;;;5056548;28;19946;-80
2022/12/03 05:52:29;;;;;;;;;;;-1.40;99.90;;;;;;5056408;28;20000;-80
2022/12/03 05:54:54;;;;;;;;;;;-1.40;99.90;;;;;;5038395;28;19924;-80
2022/12/03 05:57:20;;;;;;;;;;;-1.40;99.90;;;;;;5056389;28;20277;-80
2022/12/03 05:59:46;;;;;;;;;;;-1.40;99.90;;;;;;5056015;28;20015;-80
2022/12/03 06:02:12;;;;;;;;;;;-1.50;99.90;;;;;;5056266;28;20442;-80
2022/12/03 06:04:37;;;;;;;;;;;-1.60;99.90;;;;;;5055894;28;20331;-79
2022/12/03 06:07:03;;;;;;;;;;;-1.70;99.90;;;;;;5056747;28;19959;-79
2022/12/03 06:09:28;;;;;;;;;;;-1.70;99.90;;;;;;5057031;28;19924;-79
2022/12/03 06:11:54;;;;;;;;;;;-1.70;99.90;;;;;;5056438;28;19913;-80
2022/12/03 06:14:20;;;;;;;;;;;-1.70;99.90;;;;;;5055551;28;19958;-79
2022/12/03 06:16:45;;;;;;;;;;;-1.70;99.90;;;;;;5055225;28;20289;-80
2022/12/03 06:19:11;;;;;;;;;;;-1.70;99.90;;;;;;5039176;28;19909;-79
2022/12/03 06:21:36;;;;;;;;;;;-1.70;99.90;;;;;;5049886;28;19913;-79
2022/12/03 06:24:02;;;;;;;;;;;-1.80;99.90;;;;;;5062985;28;19913;-79
2022/12/03 06:26:29;;;;;;;;;;;-1.70;99.90;;;;;;5048358;28;19916;-79
2022/12/03 06:28:55;;;;;;;;;;;-1.70;99.90;;;;;;5067350;28;19912;-79
2022/12/03 06:31:20;;;;;;;;;;;-1.80;99.90;;;;;;5053125;28;19916;-79
2022/12/03 06:33:46;;;;;;;;;;;-1.80;99.90;;;;;;5071318;28;19909;-79
2022/12/03 06:36:11;;;;;;;;;;;-1.80;99.90;;;;;;5059495;28;20365;-79
2022/12/03 06:38:37;;;;;;;;;;;-1.80;99.90;;;;;;5063557;28;20393;-80
2022/12/03 06:41:02;;;;;;;;;;;-1.90;99.90;;;;;;5052787;28;19931;-79
2022/12/03 06:43:29;;;;;;;;;;;-1.90;99.90;;;;;;5064407;28;19912;-79
2022/12/03 06:45:55;;;;;;;;;;;-1.90;99.90;;;;;;5067868;28;19960;-79
2022/12/03 06:48:21;;;;;;;;;;;-1.90;99.90;;;;;;5066581;28;19944;-79
2022/12/03 06:50:46;;;;;;;;;;;-1.90;99.90;;;;;;5069061;28;19920;-79
2022/12/03 06:53:12;;;;;;;;;;;-1.90;99.90;;;;;;5041192;28;19935;-79
2022/12/03 06:55:37;;;;;;;;;;;-2.00;99.90;;;;;;5058972;28;19921;-79
2022/12/03 06:58:03;;;;;;;;;;;-2.00;99.90;;;;;;5059267;28;19912;-79
2022/12/03 07:00:28;;;;;;;;;;;-2.00;99.90;;;;;;5063050;28;20482;-79
2022/12/03 07:02:54;;;;;;;;;;;-2.00;99.90;;;;;;5066150;28;19959;-79
2022/12/03 07:05:19;;;;;;;;;;;-2.00;99.90;;;;;;5033411;28;19924;-79
2022/12/03 07:07:50;;;;;;;;;;;-2.00;99.90;;;;;;5065636;28;19917;-78
2022/12/03 07:10:17;;;;;;;;;;;-2.10;99.90;;;;;;5065429;28;19913;-79
2022/12/03 07:12:42;;;;;;;;;;;-2.10;99.90;;;;;;5074116;28;19974;-78
2022/12/03 07:15:08;;;;;;;;;;;-2.00;99.90;;;;;;5067823;28;20361;-79
2022/12/03 07:17:34;;;;;;;;;;;-2.10;99.90;;;;;;5039896;28;19913;-79
2022/12/03 07:19:59;;;;;;;;;;;-2.00;99.90;;;;;;5058203;28;20011;-79
2022/12/03 07:22:25;;;;;;;;;;;-2.00;99.90;;;;;;5057917;28;19917;-79
2022/12/03 07:24:50;;;;;;;;;;;-2.00;99.90;;;;;;5045980;28;20376;-78
2022/12/03 07:27:16;;;;;;;;;;;-2.00;99.90;;;;;;5072696;28;19919;-79
2022/12/03 07:29:41;;;;;;;;;;;-2.10;99.90;;;;;;5070881;28;20352;-79
2022/12/03 07:32:07;;;;;;;;;;;-2.10;99.90;;;;;;5056996;28;19908;-79
2022/12/03 07:34:32;;;;;;;;;;;-2.10;99.90;;;;;;5039629;28;20323;-79
2022/12/03 07:36:58;;;;;;;;;;;-2.10;99.90;;;;;;5039257;28;20280;-79
2022/12/03 07:39:23;;;;;;;;;;;-2.10;99.90;;;;;;5057416;28;19916;-79
2022/12/03 07:41:49;;;;;;;;;;;-2.00;99.90;;;;;;5056936;28;19979;-79
2022/12/03 07:44:15;;;;;;;;;;;-2.00;99.90;;;;;;5065550;28;19935;-79
2022/12/03 07:46:40;;;;;;;;;;;-2.10;99.90;;;;;;5067222;28;19913;-79
2022/12/03 07:49:06;;;;;;;;;;;-2.00;99.90;;;;;;5065533;28;20011;-79
2022/12/03 07:51:31;;;;;;;;;;;-2.00;99.90;;;;;;5060657;28;20323;-79
2022/12/03 07:53:57;;;;;;;;;;;-1.90;99.90;;;;;;5066516;28;19996;-78
2022/12/03 07:56:22;;;;;;;;;;;-1.90;99.90;;;;;;5061661;28;19912;-79
2022/12/03 07:58:48;;;;;;;;;;;-1.90;99.90;;;;;;5045381;28;19939;-79
2022/12/03 08:01:14;;;;;;;;;;;-1.90;99.90;;;;;;5066817;28;19959;-79
2022/12/03 08:03:41;;;;;;;;;;;-1.80;99.90;;;;;;5067549;28;19917;-79
2022/12/03 08:06:07;;;;;;;;;;;-1.80;99.90;;;;;;5068142;28;19913;-79
2022/12/03 08:08:33;;;;;;;;;;;-1.80;99.90;;;;;;5067135;28;19924;-79
2022/12/03 08:10:59;;;;;;;;;;;-1.80;99.90;;;;;;5042290;28;19913;-79
2022/12/03 08:13:26;;;;;;;;;;;-1.80;99.90;;;;;;5055831;28;19920;-78
2022/12/03 08:15:51;;;;;;;;;;;-1.80;99.90;;;;;;5066435;28;20278;-79
2022/12/03 08:18:19;;;;;;;;;;;-1.80;99.90;;;;;;5043970;28;19947;-79
2022/12/03 08:20:46;;;;;;;;;;;-1.70;99.90;;;;;;5065132;28;19909;-79
2022/12/03 08:23:17;;;;;;;;;;;-1.70;99.90;;;;;;5057461;28;19917;-79
2022/12/03 08:25:43;;;;;;;;;;;-1.70;99.90;;;;;;5061756;28;19909;-79
2022/12/03 08:28:17;;;;;;;;;;;-1.70;99.90;;;;;;5066996;28;19913;-79
2022/12/03 08:30:44;;;;;;;;;;;-1.70;99.90;;;;;;5075278;28;19931;-79
2022/12/03 08:33:32;;;;;;;;;;;-1.70;99.90;;;;;;5048370;28;19912;-79
2022/12/03 08:35:59;;;;;;;;;;;-1.60;99.90;;;;;;5056324;28;19912;-78
2022/12/03 08:38:27;;;;;;;;;;;-1.60;99.90;;;;;;5063641;28;19924;-79
2022/12/03 08:40:54;;;;;;;;;;;-1.60;99.90;;;;;;5062947;28;19962;-79
2022/12/03 08:43:27;;;;;;;;;;;-1.50;99.90;;;;;;5068388;28;19924;-79
2022/12/03 08:45:53;;;;;;;;;;;-1.50;99.90;;;;;;5043723;28;20011;-79
2022/12/03 08:48:35;;;;;;;;;;;-1.40;99.90;;;;;;5061469;28;19909;-79
2022/12/03 08:51:17;;;;;;;;;;;-1.40;99.90;;;;;;5060048;28;20349;-79
2022/12/03 08:53:46;;;;;;;;;;;-1.30;99.90;;;;;;5060344;28;19916;-79
2022/12/03 08:56:22;;;;;;;;;;;-1.30;99.90;;;;;;5062143;28;19916;-79
2022/12/03 08:58:50;;;;;;;;;;;-1.30;99.90;;;;;;5054199;28;20307;-79
2022/12/03 09:01:36;;;;;;;;;;;-1.30;99.90;;;;;;5060541;28;19920;-79
2022/12/03 09:04:22;;;;;;;;;;;-1.30;99.90;;;;;;5066330;28;20376;-79
2022/12/03 09:06:47;;;;;;;;;;;-1.30;99.90;;;;;;5055397;28;19909;-79
2022/12/03 09:09:13;;;;;;;;;;;-1.20;99.90;;;;;;5055527;28;19928;-78
2022/12/03 09:11:38;;;;;;;;;;;-1.20;99.90;;;;;;5060650;28;20160;-79
2022/12/03 09:14:04;;;;;;;;;;;-1.20;99.90;;;;;;5063998;28;19912;-80
2022/12/03 09:16:29;;;;;;;;;;;-1.10;99.90;;;;;;5057478;28;19921;-79
2022/12/03 09:18:55;;;;;;;;;;;-1.10;99.90;;;;;;5057546;28;20386;-79
2022/12/03 09:21:21;;;;;;;;;;;-1.10;99.90;;;;;;5068278;28;19967;-79
2022/12/03 09:23:46;;;;;;;;;;;-1.10;99.90;;;;;;5055402;28;19913;-79
2022/12/03 09:26:12;;;;;;;;;;;-1.00;99.90;;;;;;5055093;28;20012;-79
2022/12/03 09:28:37;;;;;;;;;;;-1.00;99.90;;;;;;5038761;28;19946;-79
2022/12/03 09:31:03;;;;;;;;;;;-1.00;99.90;;;;;;5060532;28;19916;-79
2022/12/03 09:33:31;;;;;;;;;;;-1.00;99.90;;;;;;5051185;28;19913;-79
2022/12/03 09:35:57;;;;;;;;;;;-0.90;99.90;;;;;;5018102;28;19963;-79
2022/12/03 09:38:23;;;;;;;;;;;-0.90;99.90;;;;;;5050593;28;20012;-79
2022/12/03 09:40:49;;;;;;;;;;;-0.90;99.90;;;;;;5050294;28;20009;-79
2022/12/03 09:43:14;;;;;;;;;;;-0.90;99.90;;;;;;5062411;28;20392;-79
2022/12/03 09:45:40;;;;;;;;;;;-0.90;99.90;;;;;;5067158;28;19954;-79
2022/12/03 09:48:05;;;;;;;;;;;-0.80;99.90;;;;;;5055408;28;19971;-79
2022/12/03 09:50:31;;;;;;;;;;;-0.80;99.90;;;;;;5038247;28;20327;-79
2022/12/03 09:52:59;;;;;;;;;;;-0.70;99.90;;;;;;5055764;28;19920;-79
2022/12/03 09:55:26;;;;;;;;;;;-0.70;99.90;;;;;;5056938;28;19917;-79
2022/12/03 09:57:51;;;;;;;;;;;-0.70;99.90;;;;;;5062454;28;19979;-79
2022/12/03 10:00:18;;;;;;;;;;;-0.70;99.90;;;;;;5046308;28;19913;-79
2022/12/03 10:02:45;;;;;;;;;;;-0.60;99.90;;;;;;5068833;28;20003;-79
2022/12/03 10:05:11;;;;;;;;;;;-0.70;99.90;;;;;;5064024;28;19940;-79
2022/12/03 10:07:36;;;;;;;;;;;-0.60;99.90;;;;;;5058819;28;20387;-79
2022/12/03 10:10:02;;;;;;;;;;;-0.60;99.90;;;;;;5061738;28;19913;-79
2022/12/03 10:12:28;;;;;;;;;;;-0.50;99.90;;;;;;5067270;28;19956;-79
2022/12/03 10:14:54;;;;;;;;;;;-0.50;99.90;;;;;;5042323;28;19924;-79
2022/12/03 10:17:19;;;;;;;;;;;-0.50;99.90;;;;;;5075019;28;19925;-80
2022/12/03 10:19:45;;;;;;;;;;;-0.50;99.90;;;;;;5064738;28;19932;-79
2022/12/03 10:22:10;;;;;;;;;;;-0.50;99.90;;;;;;5044705;28;20310;-79
2022/12/03 10:24:36;;;;;;;;;;;-0.50;99.90;;;;;;5065761;28;19920;-79
2022/12/03 10:27:03;;;;;;;;;;;-0.40;99.90;;;;;;5071156;28;19913;-79
2022/12/03 10:29:33;;;;;;;;;;;-0.30;99.90;;;;;;5052746;28;20165;-79
2022/12/03 10:32:02;;;;;;;;;;;-0.40;99.90;;;;;;5037031;28;20003;-79
2022/12/03 10:34:29;;;;;;;;;;;-0.30;99.90;;;;;;5055372;28;20315;-79
2022/12/03 10:37:12;;;;;;;;;;;-0.20;99.90;;;;;;5056721;28;19923;-79
2022/12/03 10:39:56;;;;;;;;;;;-0.20;99.90;;;;;;5063673;28;19916;-79
2022/12/03 10:42:22;;;;;;;;;;;-0.20;99.90;;;;;;5066339;28;19932;-79
2022/12/03 10:44:48;;;;;;;;;;;-0.20;99.90;;;;;;5061712;28;20011;-79
2022/12/03 10:47:14;;;;;;;;;;;-0.10;99.90;;;;;;5066214;28;20325;-79
2022/12/03 10:49:40;;;;;;;;;;;-0.10;99.90;;;;;;5063651;28;19940;-79
2022/12/03 10:52:15;;;;;;;;;;;-0.10;99.90;;;;;;5064116;28;20320;-79
2022/12/03 10:54:40;;;;;;;;;;;-0.10;99.90;;;;;;5061166;28;19986;-79
2022/12/03 10:57:07;;;;;;;;;;;0.00;99.90;;;;;;5060608;28;19921;-80
2022/12/03 10:59:34;;;;;;;;;;;0.00;99.90;;;;;;5060571;28;19916;-79
2022/12/03 11:02:01;;;;;;;;;;;0.00;99.90;;;;;;5045701;28;19916;-79
2022/12/03 11:04:34;;;;;;;;;;;0.10;99.90;;;;;;5064024;28;19909;-79
2022/12/03 11:07:01;;;;;;;;;;;0.10;99.90;;;;;;5069494;28;19920;-79
2022/12/03 11:09:30;;;;;;;;;;;0.10;99.90;;;;;;5050463;28;19921;-80
2022/12/03 11:12:02;;;;;;;;;;;0.10;99.90;;;;;;5044449;28;20290;-79
2022/12/03 11:14:46;;;;;;;;;;;0.20;99.90;;;;;;5065652;28;19908;-80
2022/12/03 11:17:12;;;;;;;;;;;0.30;99.90;;;;;;5074636;28;19915;-79
2022/12/03 11:19:43;;;;;;;;;;;0.30;99.90;;;;;;5048935;28;19913;-79
2022/12/03 11:22:08;;;;;;;;;;;0.40;99.90;;;;;;5063765;28;19909;-79
2022/12/03 11:24:35;;;;;;;;;;;0.50;99.90;;;;;;5069094;28;19915;-79
2022/12/03 11:27:01;;;;;;;;;;;0.50;99.90;;;;;;5057564;28;19909;-79
2022/12/03 11:29:46;;;;;;;;;;;0.60;99.90;;;;;;5057546;28;19916;-79
2022/12/03 11:32:44;;;;;;;;;;;0.70;99.90;;;;;;5057707;28;19932;-79
2022/12/03 11:35:10;;;;;;;;;;;0.70;99.90;;;;;;5012968;28;19923;-79
2022/12/03 11:37:35;;;;;;;;;;;0.80;99.90;;;;;;5057422;28;19909;-79
2022/12/03 11:40:24;;;;;;;;;;;0.80;99.90;;;;;;5039625;28;19913;-79
2022/12/03 11:42:50;;;;;;;;;;;0.90;99.90;;;;;;5046652;28;19917;-80
2022/12/03 11:45:18;;;;;;;;;;;0.90;99.90;;;;;;5039384;28;20017;-79
2022/12/03 11:48:00;;;;;;;;;;;1.00;99.90;;;;;;5057311;28;19909;-79
2022/12/03 11:50:30;;;;;;;;;;;1.00;99.90;;;;;;5039862;28;19909;-79
2022/12/03 11:53:14;;;;;;;;;;;1.00;99.90;;;;;;5019889;28;19986;-80
2022/12/03 11:55:43;;;;;;;;;;;1.10;99.90;;;;;;5043060;28;19924;-79
2022/12/03 11:58:14;;;;;;;;;;;1.10;99.90;;;;;;5057730;28;19908;-79
2022/12/03 12:00:47;;;;;;;;;;;1.10;99.90;;;;;;5064100;28;19943;-79
2022/12/03 12:03:20;;;;;;;;;;;1.10;99.90;;;;;;5063735;28;19999;-79
2022/12/03 12:05:45;;;;;;;;;;;1.20;99.90;;;;;;5055127;28;19909;-79
2022/12/03 12:08:17;;;;;;;;;;;1.20;99.90;;;;;;5065580;28;19950;-79
2022/12/03 12:10:46;;;;;;;;;;;1.20;99.90;;;;;;5068394;28;19909;-79
2022/12/03 12:13:27;;;;;;;;;;;1.20;99.90;;;;;;5062171;28;19912;-79
2022/12/03 12:15:52;;;;;;;;;;;1.30;99.90;;;;;;5044518;28;19951;-79
2022/12/03 12:18:38;;;;;;;;;;;1.30;99.90;;;;;;5061991;28;19913;-79
2022/12/03 12:21:22;;;;;;;;;;;1.30;99.90;;;;;;5042813;28;19909;-79
2022/12/03 12:23:48;;;;;;;;;;;1.30;99.90;;;;;;5062754;28;19916;-79
2022/12/03 12:26:13;;;;;;;;;;;1.30;99.90;;;;;;5051492;28;19912;-79
2022/12/03 12:28:39;;;;;;;;;;;1.30;99.90;;;;;;5078248;28;20024;-79
2022/12/03 12:31:10;;;;;;;;;;;1.30;99.90;;;;;;5059443;28;19913;-79
2022/12/03 12:33:36;;;;;;;;;;;1.40;99.90;;;;;;5077503;28;20425;-79
2022/12/03 12:36:06;;;;;;;;;;;1.40;99.90;;;;;;5078635;28;19963;-79
2022/12/03 12:38:32;;;;;;;;;;;1.40;99.90;;;;;;5076751;28;19935;-79
2022/12/03 12:41:01;;;;;;;;;;;1.40;99.90;;;;;;5066855;28;19913;-79
2022/12/03 12:43:28;;;;;;;;;;;1.40;99.90;;;;;;5063490;28;20266;-79
2022/12/03 12:45:54;;;;;;;;;;;1.40;99.90;;;;;;5063976;28;19935;-79
2022/12/03 12:48:23;;;;;;;;;;;1.40;99.90;;;;;;5071293;28;19943;-79
2022/12/03 12:50:50;;;;;;;;;;;1.40;99.90;;;;;;5070370;28;20007;-78
2022/12/03 12:53:33;;;;;;;;;;;1.40;99.90;;;;;;5056343;28;20388;-78
2022/12/03 12:56:00;;;;;;;;;;;1.40;99.90;;;;;;5038331;28;19912;-78
2022/12/03 12:58:27;;;;;;;;;;;1.40;99.90;;;;;;5038231;28;19908;-79
2022/12/03 13:00:53;;;;;;;;;;;1.40;99.90;;;;;;5056082;28;19909;-79
2022/12/03 13:03:21;;;;;;;;;;;1.40;99.90;;;;;;5056290;28;19916;-78
2022/12/03 13:05:47;;;;;;;;;;;1.40;99.90;;;;;;5061634;28;20010;-79
2022/12/03 13:08:19;;;;;;;;;;;1.40;99.90;;;;;;5065411;28;19916;-79
2022/12/03 13:10:44;;;;;;;;;;;1.40;99.90;;;;;;5064827;28;19916;-78
2022/12/03 13:13:30;;;;;;;;;;;1.40;99.90;;;;;;5070105;28;20299;-78
2022/12/03 13:15:58;;;;;;;;;;;1.40;99.90;;;;;;5064726;28;19998;-78
2022/12/03 13:18:32;;;;;;;;;;;1.40;99.90;;;;;;5064503;28;20373;-78
2022/12/03 13:20:57;;;;;;;;;;;1.40;99.90;;;;;;5063479;28;20340;-78
2022/12/03 13:23:31;;;;;;;;;;;1.40;99.90;;;;;;5038185;28;19916;-79
2022/12/03 13:25:58;;;;;;;;;;;1.40;99.90;;;;;;5065140;28;19908;-78
2022/12/03 13:28:24;;;;;;;;;;;1.40;99.90;;;;;;5061760;28;20003;-79
2022/12/03 13:30:50;;;;;;;;;;;1.50;99.90;;;;;;5066882;28;19951;-79
2022/12/03 13:33:24;;;;;;;;;;;1.50;99.90;;;;;;5038106;28;19908;-79
2022/12/03 13:35:54;;;;;;;;;;;1.50;99.90;;;;;;5061382;28;19916;-79
2022/12/03 13:38:21;;;;;;;;;;;1.50;99.90;;;;;;5066738;28;19920;-79
2022/12/03 13:40:53;;;;;;;;;;;1.50;99.90;;;;;;5072854;28;20331;-79
2022/12/03 13:43:18;;;;;;;;;;;1.50;99.90;;;;;;5076474;28;19909;-79
2022/12/03 13:45:45;;;;;;;;;;;1.50;99.90;;;;;;5075811;28;19912;-79
2022/12/03 13:48:22;;;;;;;;;;;1.50;99.90;;;;;;5075810;28;19931;-79
2022/12/03 13:50:48;;;;;;;;;;;1.50;99.90;;;;;;5062840;28;19920;-79
2022/12/03 13:53:20;;;;;;;;;;;1.50;99.90;;;;;;5050452;28;19940;-80
2022/12/03 13:55:47;;;;;;;;;;;1.50;99.90;;;;;;5061429;28;19919;-79
2022/12/03 13:58:13;;;;;;;;;;;1.50;99.90;;;;;;5044683;28;20357;-80
2022/12/03 14:00:39;;;;;;;;;;;1.50;99.90;;;;;;5045959;28;19916;-79
2022/12/03 14:03:04;;;;;;;;;;;1.50;99.90;;;;;;5042900;28;19916;-79
2022/12/03 14:05:30;;;;;;;;;;;1.50;99.90;;;;;;5067504;28;19912;-80
2022/12/03 14:07:57;;;;;;;;;;;1.50;99.90;;;;;;5047032;28;19921;-79
2022/12/03 14:10:23;;;;;;;;;;;1.50;99.90;;;;;;5060574;28;19913;-79
2022/12/03 14:12:48;;;;;;;;;;;1.50;99.90;;;;;;5063794;28;19909;-80
2022/12/03 14:15:14;;;;;;;;;;;1.50;99.90;;;;;;5063711;28;19920;-79
2022/12/03 14:17:40;;;;;;;;;;;1.40;99.90;;;;;;5064856;28;20007;-79
2022/12/03 14:20:06;;;;;;;;;;;1.40;99.90;;;;;;5059735;28;19913;-79
2022/12/03 14:22:36;;;;;;;;;;;1.50;99.90;;;;;;5069697;28;19912;-80
2022/12/03 14:25:02;;;;;;;;;;;1.40;99.90;;;;;;5066592;28;19912;-79
2022/12/03 14:27:28;;;;;;;;;;;1.40;99.90;;;;;;5061977;28;20288;-79
2022/12/03 14:29:53;;;;;;;;;;;1.50;99.90;;;;;;5057966;28;19920;-79
2022/12/03 14:32:19;;;;;;;;;;;1.40;99.90;;;;;;5057629;28;19917;-79
2022/12/03 14:34:44;;;;;;;;;;;1.40;99.90;;;;;;5047350;28;19915;-79
2022/12/03 14:37:10;;;;;;;;;;;1.40;99.90;;;;;;5052485;28;19913;-79
2022/12/03 14:39:36;;;;;;;;;;;1.30;99.90;;;;;;5057816;28;20396;-79
2022/12/03 14:42:13;;;;;;;;;;;1.30;99.90;;;;;;5056140;28;19912;-79
2022/12/03 14:44:39;;;;;;;;;;;1.30;99.90;;;;;;5074558;28;20003;-78
2022/12/03 14:47:04;;;;;;;;;;;1.30;99.90;;;;;;5075867;28;20388;-79